sensor_id;sensor_type;location;lat;lon;timestamp;pressure;altitude;pressure_sealevel;temperature;humidity
40384;BME280;26097;42.366;23.818;2022-07-29T00:01:22;94359.13;;;15.45;100.00
40384;BME280;26097;42.366;23.818;2022-07-29T00:04:23;94363.81;;;15.41;100.00
40384;BME280;26097;42.366;23.818;2022-07-29T00:07:23;94359.97;;;15.36;100.00
40384;BME280;26097;42.366;23.818;2022-07-29T00:10:24;94354.97;;;15.33;100.00
40384;BME280;26097;42.366;23.818;2022-07-29T00:13:24;94359.81;;;15.27;100.00
40384;BME280;26097;42.366;23.818;2022-07-29T00:16:24;94365.63;;;15.31;100.00
40384;BME280;26097;42.366;23.818;2022-07-29T00:19:25;94356.50;;;15.25;100.00
40384;BME280;26097;42.366;23.818;2022-07-29T00:22:25;94352.22;;;15.24;100.00
40384;BME280;26097;42.366;23.818;2022-07-29T00:25:26;94351.13;;;15.17;100.00
40384;BME280;26097;42.366;23.818;2022-07-29T00:28:26;94351.41;;;15.14;100.00
40384;BME280;26097;42.366;23.818;2022-07-29T00:31:26;94351.66;;;15.11;100.00
40384;BME280;26097;42.366;23.818;2022-07-29T00:34:27;94356.22;;;15.09;100.00
40384;BME280;26097;42.366;23.818;2022-07-29T00:37:46;94355.25;;;15.00;100.00
40384;BME280;26097;42.366;23.818;2022-07-29T00:40:47;94354.03;;;14.94;100.00
40384;BME280;26097;42.366;23.818;2022-07-29T00:43:47;94350.69;;;14.92;100.00
40384;BME280;26097;42.366;23.818;2022-07-29T00:46:48;94350.00;;;14.90;100.00
40384;BME280;26097;42.366;23.818;2022-07-29T00:49:48;94351.09;;;14.88;100.00
40384;BME280;26097;42.366;23.818;2022-07-29T00:52:49;94351.38;;;14.84;100.00
40384;BME280;26097;42.366;23.818;2022-07-29T00:55:50;94353.16;;;14.84;100.00
40384;BME280;26097;42.366;23.818;2022-07-29T00:58:51;94358.00;;;14.79;100.00
40384;BME280;26097;42.366;23.818;2022-07-29T01:01:52;94349.44;;;14.77;100.00
40384;BME280;26097;42.366;23.818;2022-07-29T01:04:53;94350.66;;;14.73;100.00
40384;BME280;26097;42.366;23.818;2022-07-29T01:07:54;94339.44;;;14.70;100.00
40384;BME280;26097;42.366;23.818;2022-07-29T01:10:55;94353.78;;;14.66;100.00
40384;BME280;26097;42.366;23.818;2022-07-29T01:13:55;94346.31;;;14.62;100.00
40384;BME280;26097;42.366;23.818;2022-07-29T01:17:00;94346.63;;;14.68;100.00
40384;BME280;26097;42.366;23.818;2022-07-29T01:26:41;94340.06;;;14.43;100.00
40384;BME280;26097;42.366;23.818;2022-07-29T01:29:46;94344.88;;;14.38;100.00
40384;BME280;26097;42.366;23.818;2022-07-29T01:32:50;94336.44;;;14.34;100.00
40384;BME280;26097;42.366;23.818;2022-07-29T01:35:54;94335.53;;;14.35;100.00
40384;BME280;26097;42.366;23.818;2022-07-29T01:39:04;94339.78;;;14.36;100.00
40384;BME280;26097;42.366;23.818;2022-07-29T01:42:10;94335.50;;;14.25;100.00
40384;BME280;26097;42.366;23.818;2022-07-29T01:45:27;94327.16;;;14.20;100.00
40384;BME280;26097;42.366;23.818;2022-07-29T01:48:37;94327.88;;;14.22;100.00
40384;BME280;26097;42.366;23.818;2022-07-29T01:52:00;94320.53;;;14.16;100.00
40384;BME280;26097;42.366;23.818;2022-07-29T01:55:08;94329.25;;;14.17;100.00
40384;BME280;26097;42.366;23.818;2022-07-29T01:58:11;94326.88;;;14.13;100.00
40384;BME280;26097;42.366;23.818;2022-07-29T02:01:13;94324.66;;;14.09;100.00
40384;BME280;26097;42.366;23.818;2022-07-29T02:04:15;94333.34;;;14.09;100.00
40384;BME280;26097;42.366;23.818;2022-07-29T02:07:18;94335.97;;;14.09;100.00
40384;BME280;26097;42.366;23.818;2022-07-29T02:10:22;94334.03;;;14.11;100.00
40384;BME280;26097;42.366;23.818;2022-07-29T02:13:25;94325.31;;;14.01;100.00
40384;BME280;26097;42.366;23.818;2022-07-29T02:16:30;94323.78;;;13.98;100.00
40384;BME280;26097;42.366;23.818;2022-07-29T02:19:32;94326.00;;;14.03;100.00
40384;BME280;26097;42.366;23.818;2022-07-29T02:22:35;94322.13;;;13.97;100.00
40384;BME280;26097;42.366;23.818;2022-07-29T02:25:37;94327.63;;;13.94;100.00
40384;BME280;26097;42.366;23.818;2022-07-29T02:28:39;94333.69;;;13.95;100.00
40384;BME280;26097;42.366;23.818;2022-07-29T02:31:41;94327.63;;;13.94;100.00
40384;BME280;26097;42.366;23.818;2022-07-29T02:34:44;94328.72;;;13.92;100.00
40384;BME280;26097;42.366;23.818;2022-07-29T02:37:47;94337.53;;;13.91;100.00
40384;BME280;26097;42.366;23.818;2022-07-29T02:41:12;94320.69;;;13.83;100.00
40384;BME280;26097;42.366;23.818;2022-07-29T02:44:21;94331.44;;;13.80;100.00
40384;BME280;26097;42.366;23.818;2022-07-29T02:47:27;94327.97;;;13.80;100.00
40384;BME280;26097;42.366;23.818;2022-07-29T02:50:34;94316.03;;;13.87;100.00
40384;BME280;26097;42.366;23.818;2022-07-29T02:53:37;94318.50;;;13.89;100.00
40384;BME280;26097;42.366;23.818;2022-07-29T02:56:39;94313.91;;;13.81;100.00
40384;BME280;26097;42.366;23.818;2022-07-29T02:59:42;94313.78;;;13.82;100.00
40384;BME280;26097;42.366;23.818;2022-07-29T03:02:45;94315.84;;;13.79;100.00
40384;BME280;26097;42.366;23.818;2022-07-29T03:05:55;94326.47;;;13.77;100.00
40384;BME280;26097;42.366;23.818;2022-07-29T03:08:57;94317.06;;;13.75;100.00
40384;BME280;26097;42.366;23.818;2022-07-29T03:12:00;94319.31;;;13.79;100.00
40384;BME280;26097;42.366;23.818;2022-07-29T03:15:01;94323.69;;;13.79;100.00
40384;BME280;26097;42.366;23.818;2022-07-29T03:18:02;94323.31;;;13.83;100.00
40384;BME280;26097;42.366;23.818;2022-07-29T03:21:03;94324.00;;;13.85;100.00
40384;BME280;26097;42.366;23.818;2022-07-29T03:24:04;94323.75;;;13.89;100.00
40384;BME280;26097;42.366;23.818;2022-07-29T03:27:05;94324.84;;;13.86;100.00
40384;BME280;26097;42.366;23.818;2022-07-29T03:30:06;94323.44;;;13.82;100.00
40384;BME280;26097;42.366;23.818;2022-07-29T03:33:07;94326.75;;;13.84;100.00
40384;BME280;26097;42.366;23.818;2022-07-29T03:36:08;94329.25;;;13.85;100.00
40384;BME280;26097;42.366;23.818;2022-07-29T03:39:10;94325.41;;;13.90;100.00
40384;BME280;26097;42.366;23.818;2022-07-29T03:42:15;94329.56;;;13.92;100.00
40384;BME280;26097;42.366;23.818;2022-07-29T03:45:18;94329.88;;;13.99;100.00
40384;BME280;26097;42.366;23.818;2022-07-29T03:48:19;94327.09;;;14.00;100.00
40384;BME280;26097;42.366;23.818;2022-07-29T03:51:21;94327.41;;;14.07;100.00
40384;BME280;26097;42.366;23.818;2022-07-29T03:54:22;94326.16;;;14.11;100.00
40384;BME280;26097;42.366;23.818;2022-07-29T03:57:24;94328.53;;;14.14;100.00
40384;BME280;26097;42.366;23.818;2022-07-29T04:00:28;94319.19;;;14.22;100.00
40384;BME280;26097;42.366;23.818;2022-07-29T04:03:29;94327.47;;;14.27;100.00
40384;BME280;26097;42.366;23.818;2022-07-29T04:06:38;94331.94;;;14.36;100.00
40384;BME280;26097;42.366;23.818;2022-07-29T04:09:39;94333.03;;;14.43;100.00
40384;BME280;26097;42.366;23.818;2022-07-29T04:12:39;94335.00;;;14.51;100.00
40384;BME280;26097;42.366;23.818;2022-07-29T04:15:40;94330.75;;;14.60;100.00
40384;BME280;26097;42.366;23.818;2022-07-29T04:18:40;94335.06;;;14.71;100.00
40384;BME280;26097;42.366;23.818;2022-07-29T04:21:41;94327.06;;;14.82;100.00
40384;BME280;26097;42.366;23.818;2022-07-29T04:24:41;94335.38;;;14.97;100.00
40384;BME280;26097;42.366;23.818;2022-07-29T04:27:41;94332.31;;;15.12;100.00
40384;BME280;26097;42.366;23.818;2022-07-29T04:31:00;94334.25;;;15.30;100.00
40384;BME280;26097;42.366;23.818;2022-07-29T04:34:00;94328.97;;;15.49;100.00
40384;BME280;26097;42.366;23.818;2022-07-29T04:37:00;94328.41;;;15.65;100.00
40384;BME280;26097;42.366;23.818;2022-07-29T04:40:01;94337.47;;;15.91;100.00
40384;BME280;26097;42.366;23.818;2022-07-29T04:43:02;94338.50;;;16.18;100.00
40384;BME280;26097;42.366;23.818;2022-07-29T04:46:03;94337.53;;;16.47;100.00
40384;BME280;26097;42.366;23.818;2022-07-29T04:49:04;94339.06;;;16.67;100.00
40384;BME280;26097;42.366;23.818;2022-07-29T04:52:05;94335.63;;;16.85;100.00
40384;BME280;26097;42.366;23.818;2022-07-29T04:55:06;94327.47;;;17.06;100.00
40384;BME280;26097;42.366;23.818;2022-07-29T04:58:07;94325.31;;;17.20;100.00
40384;BME280;26097;42.366;23.818;2022-07-29T05:01:08;94327.69;;;17.31;100.00
40384;BME280;26097;42.366;23.818;2022-07-29T05:04:08;94327.78;;;17.39;100.00
40384;BME280;26097;42.366;23.818;2022-07-29T05:07:08;94324.78;;;17.61;100.00
40384;BME280;26097;42.366;23.818;2022-07-29T05:10:09;94331.38;;;17.83;100.00
40384;BME280;26097;42.366;23.818;2022-07-29T05:13:09;94331.94;;;17.95;100.00
40384;BME280;26097;42.366;23.818;2022-07-29T05:16:10;94333.66;;;18.04;100.00
40384;BME280;26097;42.366;23.818;2022-07-29T05:19:10;94343.31;;;18.22;100.00
40384;BME280;26097;42.366;23.818;2022-07-29T05:22:11;94334.66;;;18.38;100.00
40384;BME280;26097;42.366;23.818;2022-07-29T05:25:11;94343.78;;;18.52;100.00
40384;BME280;26097;42.366;23.818;2022-07-29T05:28:11;94341.19;;;18.68;100.00
40384;BME280;26097;42.366;23.818;2022-07-29T05:31:12;94336.28;;;18.90;100.00
40384;BME280;26097;42.366;23.818;2022-07-29T05:34:14;94342.28;;;19.01;100.00
40384;BME280;26097;42.366;23.818;2022-07-29T05:37:15;94343.97;;;19.18;100.00
40384;BME280;26097;42.366;23.818;2022-07-29T05:40:15;94347.28;;;19.37;100.00
40384;BME280;26097;42.366;23.818;2022-07-29T05:43:16;94347.78;;;19.49;100.00
40384;BME280;26097;42.366;23.818;2022-07-29T05:46:16;94345.63;;;19.69;100.00
40384;BME280;26097;42.366;23.818;2022-07-29T05:49:16;94339.66;;;19.83;100.00
40384;BME280;26097;42.366;23.818;2022-07-29T05:52:17;94349.91;;;19.87;100.00
40384;BME280;26097;42.366;23.818;2022-07-29T05:55:18;94348.72;;;19.89;100.00
40384;BME280;26097;42.366;23.818;2022-07-29T05:58:18;94352.22;;;20.06;100.00
40384;BME280;26097;42.366;23.818;2022-07-29T06:01:18;94344.06;;;20.24;100.00
40384;BME280;26097;42.366;23.818;2022-07-29T06:04:19;94354.50;;;20.26;94.85
40384;BME280;26097;42.366;23.818;2022-07-29T06:07:19;94346.22;;;20.29;95.53
40384;BME280;26097;42.366;23.818;2022-07-29T06:10:20;94352.16;;;20.23;96.40
40384;BME280;26097;42.366;23.818;2022-07-29T06:13:20;94357.44;;;20.23;97.96
40384;BME280;26097;42.366;23.818;2022-07-29T06:16:21;94357.59;;;20.38;95.42
40384;BME280;26097;42.366;23.818;2022-07-29T06:19:21;94356.88;;;20.52;93.99
40384;BME280;26097;42.366;23.818;2022-07-29T06:22:22;94347.41;;;20.58;91.29
40384;BME280;26097;42.366;23.818;2022-07-29T06:25:22;94351.00;;;20.74;91.48
40384;BME280;26097;42.366;23.818;2022-07-29T06:28:23;94350.97;;;20.82;91.59
40384;BME280;26097;42.366;23.818;2022-07-29T06:31:23;94348.66;;;20.87;89.61
40384;BME280;26097;42.366;23.818;2022-07-29T06:34:23;94350.06;;;20.98;89.14
40384;BME280;26097;42.366;23.818;2022-07-29T06:37:24;94350.66;;;21.08;88.91
40384;BME280;26097;42.366;23.818;2022-07-29T06:40:25;94350.06;;;21.21;88.40
40384;BME280;26097;42.366;23.818;2022-07-29T06:43:44;94348.19;;;21.30;87.37
40384;BME280;26097;42.366;23.818;2022-07-29T06:46:45;94350.63;;;21.40;88.56
40384;BME280;26097;42.366;23.818;2022-07-29T06:49:49;94344.91;;;21.51;87.76
40384;BME280;26097;42.366;23.818;2022-07-29T06:52:49;94347.84;;;21.57;87.52
40384;BME280;26097;42.366;23.818;2022-07-29T06:55:50;94352.41;;;21.71;86.70
40384;BME280;26097;42.366;23.818;2022-07-29T06:58:50;94341.44;;;21.74;85.86
40384;BME280;26097;42.366;23.818;2022-07-29T07:01:51;94335.88;;;21.84;85.09
40384;BME280;26097;42.366;23.818;2022-07-29T07:04:52;94338.34;;;21.86;86.48
40384;BME280;26097;42.366;23.818;2022-07-29T07:07:52;94337.09;;;21.96;85.36
40384;BME280;26097;42.366;23.818;2022-07-29T07:10:52;94339.28;;;22.08;84.91
40384;BME280;26097;42.366;23.818;2022-07-29T07:13:53;94338.75;;;22.13;82.73
40384;BME280;26097;42.366;23.818;2022-07-29T07:16:53;94342.78;;;22.08;82.13
40384;BME280;26097;42.366;23.818;2022-07-29T07:19:54;94345.31;;;22.02;83.21
40384;BME280;26097;42.366;23.818;2022-07-29T07:22:54;94344.16;;;22.04;82.29
40384;BME280;26097;42.366;23.818;2022-07-29T07:25:55;94340.84;;;22.17;82.13
40384;BME280;26097;42.366;23.818;2022-07-29T07:28:55;94342.50;;;22.33;81.85
40384;BME280;26097;42.366;23.818;2022-07-29T07:31:57;94333.84;;;22.54;80.87
40384;BME280;26097;42.366;23.818;2022-07-29T07:34:57;94338.28;;;22.84;80.81
40384;BME280;26097;42.366;23.818;2022-07-29T07:37:58;94347.09;;;23.06;79.98
40384;BME280;26097;42.366;23.818;2022-07-29T07:41:00;94342.25;;;23.10;78.70
40384;BME280;26097;42.366;23.818;2022-07-29T07:44:00;94333.41;;;23.24;77.86
40384;BME280;26097;42.366;23.818;2022-07-29T07:47:01;94335.22;;;23.39;76.88
40384;BME280;26097;42.366;23.818;2022-07-29T07:50:02;94331.53;;;23.40;76.79
40384;BME280;26097;42.366;23.818;2022-07-29T07:53:02;94334.06;;;23.48;75.92
40384;BME280;26097;42.366;23.818;2022-07-29T07:56:03;94338.22;;;23.58;75.70
40384;BME280;26097;42.366;23.818;2022-07-29T07:59:05;94343.53;;;23.79;74.72
40384;BME280;26097;42.366;23.818;2022-07-29T08:02:06;94331.53;;;23.90;74.20
40384;BME280;26097;42.366;23.818;2022-07-29T08:05:07;94330.06;;;24.09;73.79
40384;BME280;26097;42.366;23.818;2022-07-29T08:08:07;94330.97;;;24.23;73.28
40384;BME280;26097;42.366;23.818;2022-07-29T08:11:08;94342.44;;;24.24;73.30
40384;BME280;26097;42.366;23.818;2022-07-29T08:14:08;94333.03;;;24.28;72.92
40384;BME280;26097;42.366;23.818;2022-07-29T08:17:09;94330.16;;;24.58;71.32
40384;BME280;26097;42.366;23.818;2022-07-29T08:20:09;94323.53;;;24.89;66.82
40384;BME280;26097;42.366;23.818;2022-07-29T08:23:10;94323.16;;;25.06;69.44
40384;BME280;26097;42.366;23.818;2022-07-29T08:26:11;94329.13;;;25.08;64.20
40384;BME280;26097;42.366;23.818;2022-07-29T08:29:12;94321.56;;;25.18;62.71
40384;BME280;26097;42.366;23.818;2022-07-29T08:32:13;94322.63;;;25.37;59.37
40384;BME280;26097;42.366;23.818;2022-07-29T08:35:13;94326.50;;;25.42;60.94
40384;BME280;26097;42.366;23.818;2022-07-29T08:38:14;94334.31;;;25.43;58.21
40384;BME280;26097;42.366;23.818;2022-07-29T08:41:14;94335.19;;;25.50;57.62
40384;BME280;26097;42.366;23.818;2022-07-29T08:44:15;94338.47;;;25.52;57.59
40384;BME280;26097;42.366;23.818;2022-07-29T08:47:17;94337.69;;;25.65;56.96
40384;BME280;26097;42.366;23.818;2022-07-29T08:50:17;94331.50;;;25.78;57.77
40384;BME280;26097;42.366;23.818;2022-07-29T08:53:18;94332.75;;;25.96;56.96
40384;BME280;26097;42.366;23.818;2022-07-29T08:56:20;94324.50;;;26.11;56.85
40384;BME280;26097;42.366;23.818;2022-07-29T08:59:22;94310.13;;;26.05;54.55
40384;BME280;26097;42.366;23.818;2022-07-29T09:02:22;94315.88;;;26.09;57.13
40384;BME280;26097;42.366;23.818;2022-07-29T09:05:25;94312.16;;;26.30;54.74
40384;BME280;26097;42.366;23.818;2022-07-29T09:08:26;94314.38;;;26.47;54.69
40384;BME280;26097;42.366;23.818;2022-07-29T09:11:27;94309.22;;;26.52;53.19
40384;BME280;26097;42.366;23.818;2022-07-29T09:14:28;94311.91;;;26.52;51.52
40384;BME280;26097;42.366;23.818;2022-07-29T09:17:45;94301.56;;;26.69;48.04
40384;BME280;26097;42.366;23.818;2022-07-29T09:20:51;94305.88;;;26.70;45.31
40384;BME280;26097;42.366;23.818;2022-07-29T09:24:17;94309.53;;;26.83;47.64
40384;BME280;26097;42.366;23.818;2022-07-29T09:27:24;94303.69;;;27.06;47.62
40384;BME280;26097;42.366;23.818;2022-07-29T09:30:26;94301.97;;;27.18;47.51
40384;BME280;26097;42.366;23.818;2022-07-29T09:33:33;94295.44;;;27.14;48.19
40384;BME280;26097;42.366;23.818;2022-07-29T09:36:41;94297.63;;;27.24;49.87
40384;BME280;26097;42.366;23.818;2022-07-29T09:39:41;94301.34;;;27.48;48.14
40384;BME280;26097;42.366;23.818;2022-07-29T09:42:46;94300.50;;;27.61;48.88
40384;BME280;26097;42.366;23.818;2022-07-29T09:45:47;94303.53;;;27.65;48.23
40384;BME280;26097;42.366;23.818;2022-07-29T09:49:08;94289.81;;;27.80;48.05
40384;BME280;26097;42.366;23.818;2022-07-29T09:52:11;94300.03;;;27.90;47.50
40384;BME280;26097;42.366;23.818;2022-07-29T09:55:12;94284.63;;;28.11;47.61
40384;BME280;26097;42.366;23.818;2022-07-29T09:58:17;94297.31;;;28.41;48.30
40384;BME280;26097;42.366;23.818;2022-07-29T10:01:27;94286.59;;;28.41;48.18
40384;BME280;26097;42.366;23.818;2022-07-29T10:04:41;94295.16;;;28.31;46.52
40384;BME280;26097;42.366;23.818;2022-07-29T10:07:49;94284.94;;;28.40;47.58
40384;BME280;26097;42.366;23.818;2022-07-29T10:10:50;94288.69;;;28.57;46.57
40384;BME280;26097;42.366;23.818;2022-07-29T10:13:50;94274.53;;;28.50;46.55
40384;BME280;26097;42.366;23.818;2022-07-29T10:16:51;94275.13;;;28.71;45.65
40384;BME280;26097;42.366;23.818;2022-07-29T10:19:52;94274.22;;;28.77;44.57
40384;BME280;26097;42.366;23.818;2022-07-29T10:22:53;94269.50;;;28.72;44.23
40384;BME280;26097;42.366;23.818;2022-07-29T10:25:54;94270.09;;;28.93;45.11
40384;BME280;26097;42.366;23.818;2022-07-29T10:28:55;94274.22;;;28.96;44.12
40384;BME280;26097;42.366;23.818;2022-07-29T10:42:25;94263.81;;;29.96;41.86
40384;BME280;26097;42.366;23.818;2022-07-29T10:45:25;94254.59;;;29.68;42.78
40384;BME280;26097;42.366;23.818;2022-07-29T10:48:26;94250.84;;;29.27;43.89
40384;BME280;26097;42.366;23.818;2022-07-29T10:55:03;94244.50;;;29.09;42.97
40384;BME280;26097;42.366;23.818;2022-07-29T10:58:15;94245.75;;;28.76;43.78
40384;BME280;26097;42.366;23.818;2022-07-29T11:01:35;94244.47;;;28.78;40.71
40384;BME280;26097;42.366;23.818;2022-07-29T11:14:58;94241.03;;;28.22;43.90
40384;BME280;26097;42.366;23.818;2022-07-29T11:21:00;94243.25;;;28.44;48.22
40384;BME280;26097;42.366;23.818;2022-07-29T11:24:15;94232.97;;;28.59;45.90
40384;BME280;26097;42.366;23.818;2022-07-29T11:27:18;94229.03;;;29.23;47.37
40384;BME280;26097;42.366;23.818;2022-07-29T11:30:21;94235.06;;;29.61;45.82
40384;BME280;26097;42.366;23.818;2022-07-29T11:33:31;94229.25;;;30.12;44.66
40384;BME280;26097;42.366;23.818;2022-07-29T11:36:32;94224.00;;;30.05;42.09
40384;BME280;26097;42.366;23.818;2022-07-29T11:39:34;94226.22;;;29.72;42.57
40384;BME280;26097;42.366;23.818;2022-07-29T11:45:45;94228.72;;;29.43;41.47
40384;BME280;26097;42.366;23.818;2022-07-29T11:48:46;94219.78;;;30.09;41.04
40384;BME280;26097;42.366;23.818;2022-07-29T11:51:54;94217.00;;;30.04;41.48
40384;BME280;26097;42.366;23.818;2022-07-29T11:54:57;94222.94;;;29.82;41.56
40384;BME280;26097;42.366;23.818;2022-07-29T11:57:59;94221.41;;;30.10;41.58
40384;BME280;26097;42.366;23.818;2022-07-29T12:01:00;94213.59;;;30.09;39.13
40384;BME280;26097;42.366;23.818;2022-07-29T12:04:05;94209.16;;;29.78;39.96
40384;BME280;26097;42.366;23.818;2022-07-29T12:07:06;94214.19;;;30.63;36.79
40384;BME280;26097;42.366;23.818;2022-07-29T12:10:07;94206.47;;;30.55;37.52
40384;BME280;26097;42.366;23.818;2022-07-29T12:13:09;94207.72;;;30.76;35.77
40384;BME280;26097;42.366;23.818;2022-07-29T12:16:10;94200.44;;;30.48;36.63
40384;BME280;26097;42.366;23.818;2022-07-29T12:19:10;94198.75;;;30.71;37.35
40384;BME280;26097;42.366;23.818;2022-07-29T12:22:10;94199.78;;;30.17;36.49
40384;BME280;26097;42.366;23.818;2022-07-29T12:25:13;94207.88;;;29.69;41.51
40384;BME280;26097;42.366;23.818;2022-07-29T12:28:15;94195.94;;;29.77;38.96
40384;BME280;26097;42.366;23.818;2022-07-29T12:31:18;94204.00;;;30.13;38.46
40384;BME280;26097;42.366;23.818;2022-07-29T12:34:19;94193.75;;;30.50;36.78
40384;BME280;26097;42.366;23.818;2022-07-29T12:37:21;94195.72;;;30.96;37.44
40384;BME280;26097;42.366;23.818;2022-07-29T12:40:21;94193.13;;;31.18;35.77
40384;BME280;26097;42.366;23.818;2022-07-29T12:43:24;94191.69;;;31.28;35.42
40384;BME280;26097;42.366;23.818;2022-07-29T12:46:24;94194.53;;;30.92;36.80
40384;BME280;26097;42.366;23.818;2022-07-29T12:49:25;94191.97;;;31.14;36.19
40384;BME280;26097;42.366;23.818;2022-07-29T12:52:27;94188.50;;;31.48;36.72
40384;BME280;26097;42.366;23.818;2022-07-29T12:55:58;94178.47;;;31.77;35.23
40384;BME280;26097;42.366;23.818;2022-07-29T12:59:14;94173.88;;;31.61;34.94
40384;BME280;26097;42.366;23.818;2022-07-29T13:02:22;94169.00;;;31.58;36.14
40384;BME280;26097;42.366;23.818;2022-07-29T13:05:22;94169.22;;;31.73;37.43
40384;BME280;26097;42.366;23.818;2022-07-29T13:08:24;94175.19;;;31.75;37.90
40384;BME280;26097;42.366;23.818;2022-07-29T13:11:30;94162.88;;;31.80;34.55
40384;BME280;26097;42.366;23.818;2022-07-29T13:17:40;94153.78;;;31.69;37.22
40384;BME280;26097;42.366;23.818;2022-07-29T13:20:42;94149.03;;;31.93;36.20
40384;BME280;26097;42.366;23.818;2022-07-29T13:23:43;94147.47;;;31.97;35.07
40384;BME280;26097;42.366;23.818;2022-07-29T13:26:43;94144.59;;;32.04;34.22
40384;BME280;26097;42.366;23.818;2022-07-29T13:29:44;94142.72;;;32.04;35.53
40384;BME280;26097;42.366;23.818;2022-07-29T13:32:44;94139.13;;;32.21;35.48
40384;BME280;26097;42.366;23.818;2022-07-29T13:35:46;94145.72;;;32.30;34.00
40384;BME280;26097;42.366;23.818;2022-07-29T13:38:47;94139.41;;;32.42;35.85
40384;BME280;26097;42.366;23.818;2022-07-29T13:41:48;94141.91;;;32.26;34.76
40384;BME280;26097;42.366;23.818;2022-07-29T13:44:48;94132.81;;;32.32;34.99
40384;BME280;26097;42.366;23.818;2022-07-29T13:47:50;94129.50;;;32.25;36.42
40384;BME280;26097;42.366;23.818;2022-07-29T13:50:51;94129.63;;;32.36;34.72
40384;BME280;26097;42.366;23.818;2022-07-29T13:53:51;94134.47;;;32.33;34.16
40384;BME280;26097;42.366;23.818;2022-07-29T13:56:52;94128.16;;;32.28;33.83
40384;BME280;26097;42.366;23.818;2022-07-29T13:59:52;94123.09;;;32.09;33.74
40384;BME280;26097;42.366;23.818;2022-07-29T14:02:53;94115.06;;;32.37;33.70
40384;BME280;26097;42.366;23.818;2022-07-29T14:05:53;94120.28;;;32.43;34.17
40384;BME280;26097;42.366;23.818;2022-07-29T14:08:53;94115.59;;;32.33;35.46
40384;BME280;26097;42.366;23.818;2022-07-29T14:11:54;94124.59;;;32.00;36.00
40384;BME280;26097;42.366;23.818;2022-07-29T14:14:54;94117.41;;;32.05;33.87
40384;BME280;26097;42.366;23.818;2022-07-29T14:17:55;94108.63;;;32.15;32.94
40384;BME280;26097;42.366;23.818;2022-07-29T14:20:56;94113.94;;;31.88;33.02
40384;BME280;26097;42.366;23.818;2022-07-29T14:23:56;94110.06;;;32.23;34.14
40384;BME280;26097;42.366;23.818;2022-07-29T14:26:57;94115.59;;;32.33;32.95
40384;BME280;26097;42.366;23.818;2022-07-29T14:29:57;94109.56;;;32.26;35.00
40384;BME280;26097;42.366;23.818;2022-07-29T14:32:58;94109.16;;;32.40;32.74
40384;BME280;26097;42.366;23.818;2022-07-29T14:35:58;94111.25;;;31.88;32.34
40384;BME280;26097;42.366;23.818;2022-07-29T14:38:59;94116.34;;;30.82;34.96
40384;BME280;26097;42.366;23.818;2022-07-29T14:41:59;94101.56;;;29.85;37.90
40384;BME280;26097;42.366;23.818;2022-07-29T14:44:59;94106.75;;;29.51;39.34
40384;BME280;26097;42.366;23.818;2022-07-29T14:48:00;94107.53;;;29.75;41.36
40384;BME280;26097;42.366;23.818;2022-07-29T14:51:00;94110.88;;;30.47;38.11
40384;BME280;26097;42.366;23.818;2022-07-29T14:54:01;94102.69;;;30.71;38.34
40384;BME280;26097;42.366;23.818;2022-07-29T14:57:01;94102.88;;;30.99;36.83
40384;BME280;26097;42.366;23.818;2022-07-29T15:00:04;94102.06;;;30.81;40.11
40384;BME280;26097;42.366;23.818;2022-07-29T15:03:06;94098.88;;;29.85;41.05
40384;BME280;26097;42.366;23.818;2022-07-29T15:06:09;94102.97;;;29.04;40.09
40384;BME280;26097;42.366;23.818;2022-07-29T15:09:10;94106.75;;;28.73;42.63
40384;BME280;26097;42.366;23.818;2022-07-29T15:12:10;94105.69;;;28.62;44.10
40384;BME280;26097;42.366;23.818;2022-07-29T15:15:11;94101.91;;;28.02;46.17
40384;BME280;26097;42.366;23.818;2022-07-29T15:18:11;94105.88;;;27.80;46.96
40384;BME280;26097;42.366;23.818;2022-07-29T15:21:12;94106.31;;;27.77;47.34
40384;BME280;26097;42.366;23.818;2022-07-29T15:24:12;94103.31;;;28.54;46.24
40384;BME280;26097;42.366;23.818;2022-07-29T15:27:12;94105.19;;;28.96;45.78
40384;BME280;26097;42.366;23.818;2022-07-29T15:30:14;94098.22;;;29.18;45.07
40384;BME280;26097;42.366;23.818;2022-07-29T15:33:16;94100.53;;;29.03;44.41
40384;BME280;26097;42.366;23.818;2022-07-29T15:36:17;94090.59;;;28.79;45.87
40384;BME280;26097;42.366;23.818;2022-07-29T15:39:19;94100.94;;;27.96;46.79
40384;BME280;26097;42.366;23.818;2022-07-29T15:42:20;94095.28;;;28.65;46.11
40384;BME280;26097;42.366;23.818;2022-07-29T15:45:21;94097.75;;;28.67;46.71
40384;BME280;26097;42.366;23.818;2022-07-29T15:48:21;94092.28;;;28.31;46.39
40384;BME280;26097;42.366;23.818;2022-07-29T15:51:21;94088.53;;;27.83;48.17
40384;BME280;26097;42.366;23.818;2022-07-29T15:54:22;94091.38;;;27.44;49.35
40384;BME280;26097;42.366;23.818;2022-07-29T15:57:23;94096.69;;;27.07;49.72
40384;BME280;26097;42.366;23.818;2022-07-29T16:00:23;94105.16;;;27.04;49.83
40384;BME280;26097;42.366;23.818;2022-07-29T16:03:24;94098.66;;;26.93;49.36
40384;BME280;26097;42.366;23.818;2022-07-29T16:06:24;94111.13;;;26.99;49.97
40384;BME280;26097;42.366;23.818;2022-07-29T16:09:25;94110.34;;;26.99;49.69
40384;BME280;26097;42.366;23.818;2022-07-29T16:12:25;94096.84;;;26.87;51.39
40384;BME280;26097;42.366;23.818;2022-07-29T16:15:26;94110.53;;;27.22;48.87
40384;BME280;26097;42.366;23.818;2022-07-29T16:18:26;94111.38;;;27.23;49.66
40384;BME280;26097;42.366;23.818;2022-07-29T16:21:27;94108.56;;;27.11;50.15
40384;BME280;26097;42.366;23.818;2022-07-29T16:24:27;94108.06;;;26.70;51.18
40384;BME280;26097;42.366;23.818;2022-07-29T16:27:29;94111.09;;;26.42;52.73